LOWW/VIE METAR and TAF weather

Enter ICAO airport designator
Station Type Date Time Source
LOWW METAR 2022/06/27 08:20 UTC NOAA

LOWW 270820Z 13013KT CAVOK 28/18 Q1016 NOSIG


Station Type Date Time Source
LOWW Decoded METAR 2022/06/27 08:20 UTC NOAA

Wien / Schwechat-Flughafen, Austria (LOWW) 48-07N 016-34E 190M
Jun 27, 2022 - 04:20 AM EDT / 2022.06.27 0820 UTC
Wind: from the SE (130 degrees) at 15 MPH (13 KT):0
Visibility: greater than 7 mile(s):0
Temperature: 82 F (28 C)
Dew Point: 64 F (18 C)
Relative Humidity: 54%
Pressure (altimeter): 30.00 in. Hg (1016 hPa)
ob: LOWW 270820Z 13013KT CAVOK 28/18 Q1016 NOSIG
cycle: 8

Station Type Date Time Source
LOWW TAF 2022/06/27 09:26 UTC NOAA

TAF COR LOWW 270818Z 2709/2815 14010KT CAVOK TX33/2714Z TN21/2802Z
TEMPO 2709/2715 15015G25KT
TEMPO 2722/2805 FEW030CB SCT040
BECMG 2723/2801 30010KT
TEMPO 2800/2805 30015G25KT TSRA PROB30
TEMPO 2800/2802 30020G40KT +TSRA

Example: see airport list